sensor_id;sensor_type;location;lat;lon;timestamp;pressure;altitude;pressure_sealevel;temperature;humidity
18850;BME280;4989;48.772;9.154;2023-03-03T00:03:18;98205.56;;;4.50;90.77
18850;BME280;4989;48.772;9.154;2023-03-03T00:08:21;98206.84;;;4.67;90.98
18850;BME280;4989;48.772;9.154;2023-03-03T00:13:26;98211.78;;;4.57;90.70
18850;BME280;4989;48.772;9.154;2023-03-03T00:18:45;98218.91;;;4.94;89.18
18850;BME280;4989;48.772;9.154;2023-03-03T00:23:48;98213.28;;;4.51;89.33
18850;BME280;4989;48.772;9.154;2023-03-03T00:28:52;98211.50;;;4.77;92.65
18850;BME280;4989;48.772;9.154;2023-03-03T00:39:38;98205.97;;;4.48;92.68
18850;BME280;4989;48.772;9.154;2023-03-03T00:55:08;98198.78;;;4.70;100.00
18850;BME280;4989;48.772;9.154;2023-03-03T01:00:12;98198.25;;;5.27;100.00
18850;BME280;4989;48.772;9.154;2023-03-03T01:05:16;98194.13;;;5.90;100.00
18850;BME280;4989;48.772;9.154;2023-03-03T01:10:19;98192.59;;;5.75;91.36
18850;BME280;4989;48.772;9.154;2023-03-03T01:15:21;98190.25;;;5.81;100.00
18850;BME280;4989;48.772;9.154;2023-03-03T01:20:23;98190.56;;;5.36;100.00
18850;BME280;4989;48.772;9.154;2023-03-03T01:25:26;98197.25;;;4.73;100.00
18850;BME280;4989;48.772;9.154;2023-03-03T01:30:30;98193.94;;;4.35;100.00
18850;BME280;4989;48.772;9.154;2023-03-03T01:35:32;98197.50;;;3.95;100.00
18850;BME280;4989;48.772;9.154;2023-03-03T01:40:37;98208.75;;;3.66;100.00
18850;BME280;4989;48.772;9.154;2023-03-03T01:50:58;98187.44;;;3.88;100.00
18850;BME280;4989;48.772;9.154;2023-03-03T01:56:04;98189.44;;;3.98;100.00
18850;BME280;4989;48.772;9.154;2023-03-03T02:01:15;98187.03;;;3.86;100.00
18850;BME280;4989;48.772;9.154;2023-03-03T02:06:26;98183.59;;;3.89;100.00
18850;BME280;4989;48.772;9.154;2023-03-03T02:11:33;98180.06;;;3.78;100.00
18850;BME280;4989;48.772;9.154;2023-03-03T02:16:39;98169.84;;;3.94;100.00
18850;BME280;4989;48.772;9.154;2023-03-03T02:21:41;98167.78;;;3.80;100.00
18850;BME280;4989;48.772;9.154;2023-03-03T02:26:45;98162.03;;;3.78;100.00
18850;BME280;4989;48.772;9.154;2023-03-03T02:31:47;98160.13;;;3.41;100.00
18850;BME280;4989;48.772;9.154;2023-03-03T02:36:49;98165.66;;;3.56;100.00
18850;BME280;4989;48.772;9.154;2023-03-03T02:47:13;98168.75;;;3.58;100.00
18850;BME280;4989;48.772;9.154;2023-03-03T02:52:15;98171.47;;;4.06;100.00
18850;BME280;4989;48.772;9.154;2023-03-03T02:57:20;98184.97;;;3.68;100.00
18850;BME280;4989;48.772;9.154;2023-03-03T03:02:23;98177.06;;;3.90;100.00
18850;BME280;4989;48.772;9.154;2023-03-03T03:07:25;98176.47;;;4.70;100.00
18850;BME280;4989;48.772;9.154;2023-03-03T03:12:28;98190.16;;;4.47;100.00
18850;BME280;4989;48.772;9.154;2023-03-03T03:17:31;98175.47;;;5.07;100.00
18850;BME280;4989;48.772;9.154;2023-03-03T03:22:34;98181.78;;;5.61;99.65
18850;BME280;4989;48.772;9.154;2023-03-03T03:27:37;98172.88;;;5.53;91.04
18850;BME280;4989;48.772;9.154;2023-03-03T03:32:39;98179.75;;;5.18;95.91
18850;BME280;4989;48.772;9.154;2023-03-03T03:37:43;98173.69;;;5.75;97.59
18850;BME280;4989;48.772;9.154;2023-03-03T03:42:46;98179.47;;;5.91;90.68
18850;BME280;4989;48.772;9.154;2023-03-03T03:47:49;98175.25;;;6.19;92.11
18850;BME280;4989;48.772;9.154;2023-03-03T03:52:52;98179.88;;;6.29;90.97
18850;BME280;4989;48.772;9.154;2023-03-03T03:57:55;98179.09;;;6.43;86.10
18850;BME280;4989;48.772;9.154;2023-03-03T04:02:59;98182.13;;;6.59;90.72
18850;BME280;4989;48.772;9.154;2023-03-03T04:08:03;98177.09;;;6.65;89.79
18850;BME280;4989;48.772;9.154;2023-03-03T04:13:05;98179.03;;;6.64;87.61
18850;BME280;4989;48.772;9.154;2023-03-03T04:18:09;98169.75;;;6.76;91.29
18850;BME280;4989;48.772;9.154;2023-03-03T04:23:11;98172.84;;;6.71;83.66
18850;BME280;4989;48.772;9.154;2023-03-03T04:28:15;98186.34;;;6.78;89.40
18850;BME280;4989;48.772;9.154;2023-03-03T04:33:18;98191.34;;;6.76;85.45
18850;BME280;4989;48.772;9.154;2023-03-03T04:38:20;98193.69;;;6.67;84.83
18850;BME280;4989;48.772;9.154;2023-03-03T04:43:25;98195.97;;;6.79;82.81
18850;BME280;4989;48.772;9.154;2023-03-03T04:48:29;98192.09;;;6.91;100.00
18850;BME280;4989;48.772;9.154;2023-03-03T04:53:31;98200.56;;;6.93;86.92
18850;BME280;4989;48.772;9.154;2023-03-03T04:58:33;98211.25;;;7.25;91.96
18850;BME280;4989;48.772;9.154;2023-03-03T05:03:36;98205.03;;;7.36;88.57
18850;BME280;4989;48.772;9.154;2023-03-03T05:08:38;98205.19;;;7.00;82.79
18850;BME280;4989;48.772;9.154;2023-03-03T05:13:40;98216.06;;;6.71;93.30
18850;BME280;4989;48.772;9.154;2023-03-03T05:18:43;98210.59;;;6.93;86.56
18850;BME280;4989;48.772;9.154;2023-03-03T05:23:46;98212.25;;;6.04;80.74
18850;BME280;4989;48.772;9.154;2023-03-03T05:28:48;98227.53;;;5.43;86.63
18850;BME280;4989;48.772;9.154;2023-03-03T05:33:50;98223.59;;;5.12;93.18
18850;BME280;4989;48.772;9.154;2023-03-03T05:38:52;98219.81;;;5.31;87.18
18850;BME280;4989;48.772;9.154;2023-03-03T05:43:54;98222.91;;;5.33;97.60
18850;BME280;4989;48.772;9.154;2023-03-03T05:48:57;98238.47;;;6.22;90.30
18850;BME280;4989;48.772;9.154;2023-03-03T05:53:59;98240.00;;;6.69;93.69
18850;BME280;4989;48.772;9.154;2023-03-03T05:59:01;98242.28;;;6.74;85.65
18850;BME280;4989;48.772;9.154;2023-03-03T06:04:03;98243.06;;;6.71;86.87
18850;BME280;4989;48.772;9.154;2023-03-03T06:09:05;98249.25;;;6.32;78.20
18850;BME280;4989;48.772;9.154;2023-03-03T06:14:07;98250.06;;;6.18;87.03
18850;BME280;4989;48.772;9.154;2023-03-03T06:19:09;98256.97;;;6.62;84.64
18850;BME280;4989;48.772;9.154;2023-03-03T06:24:11;98257.72;;;6.84;86.04
18850;BME280;4989;48.772;9.154;2023-03-03T06:29:14;98266.25;;;6.51;79.30
18850;BME280;4989;48.772;9.154;2023-03-03T06:34:16;98267.78;;;6.45;82.66
18850;BME280;4989;48.772;9.154;2023-03-03T06:39:18;98278.19;;;6.53;76.34
18850;BME280;4989;48.772;9.154;2023-03-03T06:44:20;98281.66;;;6.61;75.50
18850;BME280;4989;48.772;9.154;2023-03-03T06:49:23;98288.59;;;6.55;77.44
18850;BME280;4989;48.772;9.154;2023-03-03T06:54:28;98287.44;;;6.56;79.09
18850;BME280;4989;48.772;9.154;2023-03-03T06:59:31;98294.00;;;6.76;78.20
18850;BME280;4989;48.772;9.154;2023-03-03T07:04:33;98302.50;;;6.64;85.06
18850;BME280;4989;48.772;9.154;2023-03-03T07:09:36;98302.88;;;6.66;79.71
18850;BME280;4989;48.772;9.154;2023-03-03T07:14:48;98303.25;;;6.64;75.66
18850;BME280;4989;48.772;9.154;2023-03-03T07:19:56;98317.94;;;6.78;78.80
18850;BME280;4989;48.772;9.154;2023-03-03T07:24:59;98324.06;;;6.17;94.20
18850;BME280;4989;48.772;9.154;2023-03-03T07:30:27;98316.72;;;6.04;75.43
18850;BME280;4989;48.772;9.154;2023-03-03T07:35:40;98307.53;;;5.21;81.07
18850;BME280;4989;48.772;9.154;2023-03-03T07:40:58;98319.09;;;5.21;77.95
18850;BME280;4989;48.772;9.154;2023-03-03T07:51:22;98323.41;;;5.47;86.33
18850;BME280;4989;48.772;9.154;2023-03-03T07:56:34;98327.31;;;5.54;79.45
18850;BME280;4989;48.772;9.154;2023-03-03T08:01:45;98325.97;;;5.15;82.81
18850;BME280;4989;48.772;9.154;2023-03-03T08:06:57;98334.47;;;5.21;77.10
18850;BME280;4989;48.772;9.154;2023-03-03T08:12:19;98342.16;;;6.10;80.67
18850;BME280;4989;48.772;9.154;2023-03-03T08:17:35;98334.44;;;7.19;76.13
18850;BME280;4989;48.772;9.154;2023-03-03T08:22:38;98336.75;;;8.16;76.75
18850;BME280;4989;48.772;9.154;2023-03-03T08:27:40;98327.88;;;9.12;74.83
18850;BME280;4989;48.772;9.154;2023-03-03T08:32:42;98320.13;;;9.49;66.65
18850;BME280;4989;48.772;9.154;2023-03-03T08:37:44;98325.06;;;9.57;69.41
18850;BME280;4989;48.772;9.154;2023-03-03T08:42:46;98334.69;;;9.66;65.14
18850;BME280;4989;48.772;9.154;2023-03-03T08:47:50;98334.38;;;10.18;62.93
18850;BME280;4989;48.772;9.154;2023-03-03T08:52:52;98331.78;;;10.11;63.28
18850;BME280;4989;48.772;9.154;2023-03-03T08:57:54;98343.00;;;9.82;67.79
18850;BME280;4989;48.772;9.154;2023-03-03T09:02:56;98348.69;;;9.26;58.04
18850;BME280;4989;48.772;9.154;2023-03-03T09:08:00;98353.69;;;12.57;54.10
18850;BME280;4989;48.772;9.154;2023-03-03T09:13:10;98358.38;;;11.44;54.69
18850;BME280;4989;48.772;9.154;2023-03-03T09:18:30;98361.09;;;11.64;57.52
18850;BME280;4989;48.772;9.154;2023-03-03T09:23:39;98361.91;;;9.21;57.57
18850;BME280;4989;48.772;9.154;2023-03-03T09:28:42;98367.69;;;9.91;59.12
18850;BME280;4989;48.772;9.154;2023-03-03T09:33:46;98372.22;;;11.93;55.89
18850;BME280;4989;48.772;9.154;2023-03-03T09:38:54;98368.88;;;12.74;54.58
18850;BME280;4989;48.772;9.154;2023-03-03T10:00:29;98365.22;;;11.92;53.32
18850;BME280;4989;48.772;9.154;2023-03-03T10:06:00;98366.34;;;11.75;60.95
18850;BME280;4989;48.772;9.154;2023-03-03T10:21:43;98367.09;;;12.15;55.30
18850;BME280;4989;48.772;9.154;2023-03-03T10:43:36;98366.63;;;12.69;54.22
18850;BME280;4989;48.772;9.154;2023-03-03T10:54:27;98360.63;;;13.07;54.80
18850;BME280;4989;48.772;9.154;2023-03-03T11:21:15;98360.84;;;13.74;54.38
18850;BME280;4989;48.772;9.154;2023-03-03T11:31:56;98363.31;;;12.61;54.12
18850;BME280;4989;48.772;9.154;2023-03-03T11:37:07;98380.94;;;12.57;55.62
18850;BME280;4989;48.772;9.154;2023-03-03T11:42:24;98381.44;;;12.35;63.47
18850;BME280;4989;48.772;9.154;2023-03-03T11:47:42;98356.91;;;12.35;55.63
18850;BME280;4989;48.772;9.154;2023-03-03T11:52:53;98359.13;;;12.57;56.95
18850;BME280;4989;48.772;9.154;2023-03-03T11:58:11;98350.34;;;12.33;54.05
18850;BME280;4989;48.772;9.154;2023-03-03T12:08:52;98340.34;;;13.95;53.11
18850;BME280;4989;48.772;9.154;2023-03-03T12:30:36;98330.41;;;16.91;42.35
18850;BME280;4989;48.772;9.154;2023-03-03T12:57:37;98311.47;;;17.67;42.38
18850;BME280;4989;48.772;9.154;2023-03-03T13:02:59;98307.06;;;17.78;48.19
18850;BME280;4989;48.772;9.154;2023-03-03T13:13:59;98309.22;;;18.17;39.69
18850;BME280;4989;48.772;9.154;2023-03-03T13:19:25;98308.09;;;19.67;40.92
18850;BME280;4989;48.772;9.154;2023-03-03T13:24:58;98311.91;;;18.92;38.92
18850;BME280;4989;48.772;9.154;2023-03-03T13:30:22;98312.25;;;15.94;43.97
18850;BME280;4989;48.772;9.154;2023-03-03T13:35:48;98302.72;;;14.63;46.56
18850;BME280;4989;48.772;9.154;2023-03-03T13:41:05;98305.78;;;14.27;51.93
18850;BME280;4989;48.772;9.154;2023-03-03T13:58:07;98289.41;;;22.02;39.47
18850;BME280;4989;48.772;9.154;2023-03-03T14:14:21;98282.56;;;22.67;32.57
18850;BME280;4989;48.772;9.154;2023-03-03T14:19:39;98271.06;;;22.85;31.71
18850;BME280;4989;48.772;9.154;2023-03-03T14:25:15;98272.69;;;22.60;32.03
18850;BME280;4989;48.772;9.154;2023-03-03T14:35:23;98280.91;;;15.95;41.50
18850;BME280;4989;48.772;9.154;2023-03-03T14:40:33;98271.09;;;14.97;47.21
18850;BME280;4989;48.772;9.154;2023-03-03T14:45:40;98271.69;;;14.32;52.19
18850;BME280;4989;48.772;9.154;2023-03-03T14:55:53;98269.03;;;13.64;50.82
18850;BME280;4989;48.772;9.154;2023-03-03T15:01:32;98261.91;;;13.41;51.90
18850;BME280;4989;48.772;9.154;2023-03-03T15:06:45;98270.88;;;12.96;54.37
18850;BME280;4989;48.772;9.154;2023-03-03T15:11:57;98264.28;;;13.10;54.78
18850;BME280;4989;48.772;9.154;2023-03-03T15:27:43;98244.13;;;12.62;55.64
18850;BME280;4989;48.772;9.154;2023-03-03T15:33:14;98256.53;;;12.63;55.47
18850;BME280;4989;48.772;9.154;2023-03-03T15:38:22;98265.75;;;12.53;53.95
18850;BME280;4989;48.772;9.154;2023-03-03T15:43:41;98253.31;;;12.52;55.85
18850;BME280;4989;48.772;9.154;2023-03-03T15:54:52;98257.56;;;12.36;55.15
18850;BME280;4989;48.772;9.154;2023-03-03T16:05:41;98257.41;;;12.27;55.02
18850;BME280;4989;48.772;9.154;2023-03-03T16:11:03;98261.94;;;12.18;55.95
18850;BME280;4989;48.772;9.154;2023-03-03T16:21:53;98262.34;;;12.00;55.67
18850;BME280;4989;48.772;9.154;2023-03-03T16:32:47;98273.97;;;11.64;57.63
18850;BME280;4989;48.772;9.154;2023-03-03T16:37:57;98293.50;;;11.59;58.40
18850;BME280;4989;48.772;9.154;2023-03-03T17:11:10;98313.06;;;11.14;59.48
18850;BME280;4989;48.772;9.154;2023-03-03T17:32:33;98345.91;;;10.52;57.48
18850;BME280;4989;48.772;9.154;2023-03-03T17:42:55;98359.63;;;10.45;59.35
18850;BME280;4989;48.772;9.154;2023-03-03T17:48:23;98352.88;;;10.30;61.01
18850;BME280;4989;48.772;9.154;2023-03-03T17:53:40;98360.66;;;10.24;61.74
18850;BME280;4989;48.772;9.154;2023-03-03T17:59:14;98367.22;;;10.30;61.71
18850;BME280;4989;48.772;9.154;2023-03-03T18:04:41;98371.06;;;10.33;63.19
18850;BME280;4989;48.772;9.154;2023-03-03T18:15:25;98386.81;;;10.15;62.98
18850;BME280;4989;48.772;9.154;2023-03-03T18:25:59;98397.88;;;9.97;60.41
18850;BME280;4989;48.772;9.154;2023-03-03T18:31:02;98393.53;;;9.72;66.62
18850;BME280;4989;48.772;9.154;2023-03-03T18:36:34;98395.34;;;9.48;63.95
18850;BME280;4989;48.772;9.154;2023-03-03T18:47:18;98408.00;;;9.58;67.38
18850;BME280;4989;48.772;9.154;2023-03-03T18:52:28;98406.06;;;9.59;68.49
18850;BME280;4989;48.772;9.154;2023-03-03T18:57:31;98416.16;;;9.58;65.71
18850;BME280;4989;48.772;9.154;2023-03-03T19:02:36;98423.47;;;9.61;64.70
18850;BME280;4989;48.772;9.154;2023-03-03T19:07:51;98431.66;;;9.58;73.15
18850;BME280;4989;48.772;9.154;2023-03-03T19:12:55;98432.44;;;9.58;71.25
18850;BME280;4989;48.772;9.154;2023-03-03T19:18:20;98436.41;;;9.50;68.21
18850;BME280;4989;48.772;9.154;2023-03-03T19:23:51;98433.81;;;9.36;65.85
18850;BME280;4989;48.772;9.154;2023-03-03T19:29:18;98437.88;;;9.17;65.57
18850;BME280;4989;48.772;9.154;2023-03-03T19:34:49;98436.75;;;9.07;64.16
18850;BME280;4989;48.772;9.154;2023-03-03T19:40:07;98446.88;;;9.03;67.25
18850;BME280;4989;48.772;9.154;2023-03-03T19:46:49;98443.13;;;8.90;64.51
18850;BME280;4989;48.772;9.154;2023-03-03T19:56:49;98455.25;;;8.67;65.01
18850;BME280;4989;48.772;9.154;2023-03-03T20:02:22;98448.78;;;8.51;64.78
18850;BME280;4989;48.772;9.154;2023-03-03T20:08:14;98455.75;;;8.48;67.44
18850;BME280;4989;48.772;9.154;2023-03-03T20:13:47;98456.44;;;8.59;66.38
18850;BME280;4989;48.772;9.154;2023-03-03T20:24:48;98474.53;;;7.89;67.48
18850;BME280;4989;48.772;9.154;2023-03-03T20:30:01;98475.69;;;7.77;67.29
18850;BME280;4989;48.772;9.154;2023-03-03T20:40:57;98482.25;;;7.90;66.83
18850;BME280;4989;48.772;9.154;2023-03-03T20:51:52;98478.81;;;7.65;67.40
18850;BME280;4989;48.772;9.154;2023-03-03T20:57:17;98480.00;;;7.64;67.01
18850;BME280;4989;48.772;9.154;2023-03-03T21:08:03;98486.56;;;7.38;68.74
18850;BME280;4989;48.772;9.154;2023-03-03T21:13:38;98488.91;;;7.39;68.72
18850;BME280;4989;48.772;9.154;2023-03-03T21:18:42;98503.19;;;7.18;69.88
18850;BME280;4989;48.772;9.154;2023-03-03T21:23:57;98496.22;;;7.03;69.96
18850;BME280;4989;48.772;9.154;2023-03-03T21:29:00;98503.19;;;6.97;72.81
18850;BME280;4989;48.772;9.154;2023-03-03T21:39:36;98500.44;;;6.75;73.29
18850;BME280;4989;48.772;9.154;2023-03-03T21:44:43;98503.53;;;6.84;77.14
18850;BME280;4989;48.772;9.154;2023-03-03T21:49:49;98500.84;;;6.81;72.45
18850;BME280;4989;48.772;9.154;2023-03-03T21:54:52;98499.25;;;6.69;74.28
18850;BME280;4989;48.772;9.154;2023-03-03T21:59:54;98495.41;;;6.63;76.60
18850;BME280;4989;48.772;9.154;2023-03-03T22:04:56;98495.41;;;6.67;76.75
18850;BME280;4989;48.772;9.154;2023-03-03T22:09:58;98492.28;;;6.64;79.00
18850;BME280;4989;48.772;9.154;2023-03-03T22:15:00;98501.66;;;7.21;79.46
18850;BME280;4989;48.772;9.154;2023-03-03T22:20:03;98496.59;;;7.01;83.56
18850;BME280;4989;48.772;9.154;2023-03-03T22:25:06;98499.28;;;6.76;74.02
18850;BME280;4989;48.772;9.154;2023-03-03T22:30:09;98498.09;;;6.63;72.99
18850;BME280;4989;48.772;9.154;2023-03-03T22:35:11;98497.69;;;6.61;72.99
18850;BME280;4989;48.772;9.154;2023-03-03T22:40:13;98493.09;;;6.76;82.90
18850;BME280;4989;48.772;9.154;2023-03-03T22:45:16;98493.91;;;7.05;79.30
18850;BME280;4989;48.772;9.154;2023-03-03T22:50:18;98487.75;;;7.33;72.97
18850;BME280;4989;48.772;9.154;2023-03-03T22:55:21;98502.00;;;6.91;70.87
18850;BME280;4989;48.772;9.154;2023-03-03T23:00:23;98507.78;;;6.82;73.55
18850;BME280;4989;48.772;9.154;2023-03-03T23:05:25;98507.06;;;7.17;77.73
18850;BME280;4989;48.772;9.154;2023-03-03T23:10:27;98510.91;;;7.38;76.89
18850;BME280;4989;48.772;9.154;2023-03-03T23:15:30;98510.50;;;7.00;71.44
18850;BME280;4989;48.772;9.154;2023-03-03T23:20:33;98507.72;;;6.64;75.52
18850;BME280;4989;48.772;9.154;2023-03-03T23:25:35;98514.59;;;6.47;74.53
18850;BME280;4989;48.772;9.154;2023-03-03T23:30:37;98516.16;;;6.45;81.27
18850;BME280;4989;48.772;9.154;2023-03-03T23:35:39;98517.41;;;6.79;79.02
18850;BME280;4989;48.772;9.154;2023-03-03T23:40:42;98519.19;;;6.32;74.87
18850;BME280;4989;48.772;9.154;2023-03-03T23:45:45;98517.66;;;6.35;74.51
18850;BME280;4989;48.772;9.154;2023-03-03T23:50:47;98514.25;;;6.49;80.88
18850;BME280;4989;48.772;9.154;2023-03-03T23:55:49;98526.06;;;6.23;76.03
